createdAt,value
2023-09-30T06:56:04.919Z,6.57
2023-09-30T06:58:31.623Z,6.75
2023-09-30T07:07:16.513Z,6.88
2023-09-30T07:10:06.823Z,6.83
2023-09-30T07:47:29.358Z,7.90
2023-09-30T07:57:54.591Z,7.60
2023-09-30T08:14:54.838Z,6.18
2023-09-30T08:28:13.733Z,5.30
2023-09-30T08:30:44.037Z,4.88
2023-09-30T08:33:13.346Z,5.30
2023-09-30T17:45:19.630Z,1.17
2023-09-30T18:08:33.982Z,1.02
2023-09-30T18:27:53.471Z,1.10
2023-09-30T18:34:00.666Z,1.50
2023-09-30T18:36:01.392Z,1.52
2023-09-30T18:38:28.174Z,1.27
2023-09-30T18:41:23.356Z,1.20
2023-09-30T18:44:01.888Z,1.13
2023-09-30T18:50:13.740Z,1.42
2023-09-30T18:59:29.576Z,1.38
2023-09-30T19:02:40.641Z,1.15
2023-09-30T19:05:33.269Z,1.85
2023-09-30T19:08:04.173Z,2.33
2023-09-30T19:13:42.824Z,1.60
2023-09-30T19:19:24.172Z,5.80
2023-09-30T19:21:50.017Z,3.17
2023-09-30T19:24:22.157Z,2.53
2023-09-30T19:29:35.651Z,2.45
2023-09-30T19:32:04.983Z,2.42
2023-09-30T19:34:31.871Z,2.30
2023-09-30T19:39:45.432Z,2.90
2023-09-30T19:42:15.248Z,2.40
2023-09-30T19:48:05.559Z,3.33
2023-09-30T19:50:31.788Z,3.37
2023-09-30T19:53:01.046Z,3.75
2023-09-30T19:59:31.634Z,3.58
2023-09-30T20:01:32.378Z,3.47
2023-09-30T20:03:59.387Z,4.10
2023-09-30T20:06:26.860Z,2.97
2023-09-30T20:08:53.697Z,3.05
2023-09-30T20:14:11.432Z,3.38
2023-09-30T20:17:02.939Z,2.83
2023-09-30T20:19:30.181Z,2.28
2023-09-30T20:21:57.160Z,2.75
2023-09-30T20:24:24.071Z,2.85
2023-09-30T20:27:04.955Z,2.45
2023-09-30T20:29:31.875Z,2.23
2023-09-30T20:32:01.010Z,2.30
2023-09-30T20:34:27.735Z,2.40
2023-09-30T20:36:56.635Z,2.60
2023-09-30T20:39:23.447Z,2.50
2023-09-30T20:42:13.241Z,2.43
2023-09-30T20:44:39.915Z,2.67
2023-09-30T20:47:07.816Z,2.70
2023-09-30T20:49:37.472Z,2.50
2023-09-30T20:52:31.973Z,2.50
2023-09-30T20:54:58.322Z,2.47
2023-09-30T20:57:25.085Z,2.40
2023-09-30T20:59:57.545Z,1.80
2023-09-30T21:02:49.161Z,1.77
2023-09-30T21:05:18.810Z,2.83
2023-09-30T21:07:47.657Z,2.30
2023-09-30T21:10:41.614Z,2.03
2023-09-30T21:13:07.081Z,2.05
2023-09-30T21:15:38.272Z,2.03
2023-09-30T21:20:51.801Z,2.53
2023-09-30T21:23:18.606Z,2.60
2023-09-30T21:25:45.930Z,2.30
2023-09-30T21:28:12.881Z,2.30
2023-09-30T21:30:40.018Z,2.42
2023-09-30T21:33:07.220Z,2.33
2023-09-30T21:35:34.540Z,2.90
2023-09-30T21:38:04.647Z,2.58
2023-09-30T21:40:31.498Z,2.40
2023-09-30T21:42:58.317Z,2.65
2023-09-30T21:45:24.959Z,2.93
2023-09-30T21:47:54.179Z,3.45
2023-09-30T21:50:20.903Z,3.22
2023-09-30T21:52:47.688Z,3.03
2023-09-30T21:55:16.768Z,4.03
2023-09-30T21:57:43.718Z,3.67
2023-09-30T22:00:40.102Z,2.63
2023-09-30T22:03:10.112Z,3.65
2023-09-30T22:05:52.336Z,3.55
2023-09-30T22:08:20.483Z,3.05
2023-09-30T22:10:48.516Z,3.73
2023-09-30T22:13:16.682Z,4.05
2023-09-30T22:15:43.951Z,4.38
2023-09-30T22:18:12.521Z,4.28
2023-09-30T22:20:46.408Z,4.47
2023-09-30T22:23:19.261Z,4.73
2023-09-30T22:25:47.655Z,4.70
2023-09-30T22:28:14.378Z,5.13
2023-09-30T22:30:42.307Z,4.53
2023-09-30T22:33:09.064Z,4.30
2023-09-30T22:35:38.933Z,4.27
2023-09-30T22:38:05.751Z,4.60
2023-09-30T22:40:32.548Z,4.57
2023-09-30T22:43:08.621Z,4.47
2023-09-30T22:45:38.697Z,4.45
2023-09-30T22:48:06.046Z,4.73
2023-09-30T22:50:33.510Z,4.30
2023-09-30T22:53:00.506Z,4.50
2023-09-30T22:55:28.099Z,4.10
2023-09-30T22:58:02.520Z,4.30
2023-09-30T23:00:29.442Z,4.30
2023-09-30T23:02:56.829Z,4.50
2023-09-30T23:05:23.965Z,4.60
2023-09-30T23:07:58.713Z,4.40
2023-09-30T23:10:31.515Z,4.55
2023-09-30T23:12:58.430Z,4.47
2023-09-30T23:15:45.474Z,5.05
2023-09-30T23:18:14.675Z,4.03
2023-09-30T23:20:41.793Z,3.97
2023-09-30T23:23:40.493Z,4.63
2023-09-30T23:29:20.603Z,4.35
2023-09-30T23:31:48.691Z,4.25
2023-09-30T23:34:15.522Z,4.47
2023-09-30T23:36:42.866Z,4.15
2023-09-30T23:39:13.399Z,4.27
2023-09-30T23:41:44.549Z,4.55
2023-09-30T23:44:12.609Z,4.65
2023-09-30T23:46:39.997Z,4.80
2023-09-30T23:49:07.886Z,4.60
2023-09-30T23:51:34.843Z,4.63
2023-09-30T23:56:51.242Z,4.63
2023-09-30T23:59:43.816Z,4.75
